createdAt,value
2023-03-12T00:00:08.673Z,-1.10
2023-03-12T00:02:35.696Z,-1.00
2023-03-12T00:05:02.473Z,-0.90
2023-03-12T00:07:29.116Z,-0.90
2023-03-12T00:09:55.765Z,-0.80
2023-03-12T00:12:22.410Z,-0.90
2023-03-12T00:14:49.033Z,-0.90
2023-03-12T00:17:15.672Z,-0.80
2023-03-12T00:19:42.274Z,-0.80
2023-03-12T00:22:08.908Z,-0.80
2023-03-12T00:24:42.076Z,-0.80
2023-03-12T00:27:08.717Z,-0.80
2023-03-12T00:29:35.995Z,-0.90
2023-03-12T00:32:02.614Z,-0.90
2023-03-12T00:34:29.291Z,-1.00
2023-03-12T00:36:55.934Z,-1.00
2023-03-12T00:39:22.541Z,-1.00
2023-03-12T00:41:49.177Z,-1.00
2023-03-12T00:44:15.823Z,-1.00
2023-03-12T00:46:42.519Z,-1.00
2023-03-12T00:49:09.203Z,-1.00
2023-03-12T00:51:35.978Z,-0.90
2023-03-12T00:54:02.697Z,-1.00
2023-03-12T00:56:29.391Z,-0.90
2023-03-12T00:58:56.082Z,-0.80
2023-03-12T01:01:22.870Z,-0.80
2023-03-12T01:03:52.057Z,-0.70
2023-03-12T01:06:18.746Z,-0.60
2023-03-12T01:08:45.565Z,-0.70
2023-03-12T01:11:20.485Z,-0.60
2023-03-12T01:13:47.269Z,-0.50
2023-03-12T01:16:14.116Z,-0.40
2023-03-12T01:18:40.838Z,-0.40
2023-03-12T01:21:07.720Z,-0.40
2023-03-12T01:23:34.407Z,-0.40
2023-03-12T01:26:01.041Z,-0.40
2023-03-12T01:28:27.840Z,-0.40
2023-03-12T01:30:54.527Z,-0.40
2023-03-12T01:33:22.843Z,-0.40
2023-03-12T01:35:50.173Z,-0.40
2023-03-12T01:38:19.191Z,-0.40
2023-03-12T01:40:45.877Z,-0.40
2023-03-12T01:43:36.208Z,-0.40
2023-03-12T01:46:26.538Z,-0.30
2023-03-12T01:49:01.897Z,-0.30
2023-03-12T01:51:34.640Z,-0.10
2023-03-12T01:54:05.341Z,0.10
2023-03-12T01:56:35.298Z,-0.20
2023-03-12T01:59:07.077Z,-0.20
2023-03-12T02:01:34.297Z,-0.10
2023-03-12T02:04:01.824Z,-0.10
2023-03-12T02:06:44.231Z,-0.10
2023-03-12T02:09:13.104Z,-0.10
2023-03-12T02:11:39.733Z,0.00
2023-03-12T02:14:06.572Z,0.00
2023-03-12T02:16:33.332Z,0.00
2023-03-12T02:19:02.145Z,0.00
2023-03-12T02:21:33.665Z,0.10
2023-03-12T02:24:22.083Z,0.10
2023-03-12T02:26:49.719Z,0.10
2023-03-12T02:29:16.689Z,0.10
2023-03-12T02:31:50.213Z,0.10
2023-03-12T02:34:17.088Z,0.20
2023-03-12T02:36:43.824Z,0.10
2023-03-12T02:39:13.064Z,0.10
2023-03-12T02:41:43.746Z,0.10
2023-03-12T02:44:23.598Z,0.20
2023-03-12T02:46:55.960Z,0.20
2023-03-12T02:49:25.865Z,0.30
2023-03-12T02:51:53.036Z,0.30
2023-03-12T02:54:21.690Z,0.30
2023-03-12T02:56:49.491Z,0.30
2023-03-12T02:59:16.872Z,0.40
2023-03-12T03:01:43.824Z,0.40
2023-03-12T03:04:12.409Z,0.40
2023-03-12T03:06:42.707Z,0.30
2023-03-12T03:09:09.442Z,0.30
2023-03-12T03:11:36.333Z,0.40
2023-03-12T03:14:04.307Z,0.40
2023-03-12T03:16:31.009Z,0.40
2023-03-12T03:18:57.653Z,0.50
2023-03-12T03:21:24.457Z,0.50
2023-03-12T03:23:51.878Z,0.60
2023-03-12T03:26:21.718Z,0.60
2023-03-12T03:28:48.633Z,0.60
2023-03-12T03:31:15.945Z,0.60
2023-03-12T03:33:43.015Z,0.60
2023-03-12T03:36:10.410Z,0.60
2023-03-12T03:38:37.235Z,0.60
2023-03-12T03:41:04.204Z,0.60
2023-03-12T03:43:30.923Z,0.70
2023-03-12T03:46:03.833Z,0.70
2023-03-12T03:48:31.263Z,0.60
2023-03-12T03:51:01.927Z,0.70
2023-03-12T03:53:28.894Z,0.60
2023-03-12T03:55:55.556Z,0.60
2023-03-12T03:58:22.357Z,0.70
2023-03-12T04:00:49.305Z,0.70
2023-03-12T04:03:17.249Z,0.70
2023-03-12T04:05:45.334Z,0.70
2023-03-12T04:08:13.473Z,0.70
2023-03-12T04:10:40.602Z,0.70
2023-03-12T04:13:07.343Z,0.70
2023-03-12T04:15:33.977Z,0.70
2023-03-12T04:18:00.791Z,0.70
2023-03-12T04:20:27.503Z,0.70
2023-03-12T04:22:54.102Z,0.70
2023-03-12T04:25:20.725Z,0.70
2023-03-12T04:27:47.353Z,0.70
2023-03-12T04:30:14.260Z,0.70
2023-03-12T04:32:40.955Z,0.80
2023-03-12T04:35:07.940Z,0.80
2023-03-12T04:37:34.566Z,0.80
2023-03-12T04:40:04.987Z,0.80
2023-03-12T04:42:31.651Z,0.90
2023-03-12T04:44:58.281Z,0.90
2023-03-12T04:47:24.984Z,0.90
2023-03-12T04:49:51.666Z,0.90
2023-03-12T04:52:18.458Z,1.00
2023-03-12T04:54:47.854Z,1.00
2023-03-12T04:57:14.711Z,1.10
2023-03-12T04:59:41.339Z,1.10
2023-03-12T05:02:08.359Z,1.20
2023-03-12T05:04:35.023Z,1.20
2023-03-12T05:07:01.762Z,1.30
2023-03-12T05:09:28.430Z,1.30
2023-03-12T05:11:55.367Z,1.30
2023-03-12T05:14:22.036Z,1.30
2023-03-12T05:16:48.681Z,1.30
2023-03-12T05:19:15.430Z,1.30
2023-03-12T05:21:42.725Z,1.30
2023-03-12T05:24:10.744Z,1.40
2023-03-12T05:26:38.141Z,1.40
2023-03-12T05:29:06.086Z,1.50
2023-03-12T05:31:35.175Z,1.50
2023-03-12T05:34:03.743Z,1.50
2023-03-12T05:36:30.462Z,1.50
2023-03-12T05:38:57.300Z,1.50
2023-03-12T05:41:26.322Z,1.40
2023-03-12T05:43:54.312Z,1.40
2023-03-12T05:46:20.969Z,1.40
2023-03-12T05:48:47.725Z,1.30
2023-03-12T05:51:15.069Z,1.30
2023-03-12T05:53:41.856Z,1.30
2023-03-12T05:56:13.180Z,1.20
2023-03-12T05:58:40.261Z,1.30
2023-03-12T06:01:16.082Z,1.30
2023-03-12T06:03:43.065Z,1.30
2023-03-12T06:06:10.217Z,1.40
2023-03-12T06:08:36.925Z,1.30
2023-03-12T06:11:04.054Z,1.40
2023-03-12T06:13:30.949Z,1.40
2023-03-12T06:16:09.553Z,1.50
2023-03-12T06:18:37.891Z,1.50
2023-03-12T06:21:09.573Z,1.60
2023-03-12T06:23:37.155Z,1.70
2023-03-12T06:26:04.107Z,1.70
2023-03-12T06:28:30.894Z,1.70
2023-03-12T06:30:57.642Z,1.70
2023-03-12T06:33:24.257Z,1.80
2023-03-12T06:35:57.741Z,1.90
2023-03-12T06:38:25.068Z,2.00
2023-03-12T06:41:06.356Z,2.10
2023-03-12T06:43:36.064Z,2.10
2023-03-12T06:46:04.160Z,2.10
2023-03-12T06:48:36.793Z,2.20
2023-03-12T06:51:07.733Z,2.20
2023-03-12T06:53:35.043Z,2.10
2023-03-12T06:56:02.028Z,2.20
2023-03-12T06:58:28.849Z,2.10
2023-03-12T07:00:55.534Z,2.10
2023-03-12T07:03:22.168Z,2.10
2023-03-12T07:05:50.217Z,2.20
2023-03-12T07:08:18.533Z,2.30
2023-03-12T07:10:45.607Z,2.30
2023-03-12T07:13:13.427Z,2.30
2023-03-12T07:15:40.176Z,2.30
2023-03-12T07:18:08.762Z,2.30
2023-03-12T07:20:40.848Z,2.30
2023-03-12T07:23:08.108Z,2.40
2023-03-12T07:25:39.818Z,2.40
2023-03-12T07:28:07.827Z,2.30
2023-03-12T07:30:34.718Z,2.30
2023-03-12T07:33:02.786Z,2.40
2023-03-12T07:35:29.863Z,2.50
2023-03-12T07:37:57.086Z,2.60
2023-03-12T07:40:23.834Z,2.70
2023-03-12T07:42:51.791Z,2.80
2023-03-12T07:45:19.611Z,2.80
2023-03-12T07:47:46.428Z,3.00
2023-03-12T07:50:13.953Z,3.00
2023-03-12T07:52:40.686Z,3.10
2023-03-12T07:55:08.228Z,3.20
2023-03-12T07:57:34.949Z,3.20
2023-03-12T08:00:01.800Z,3.20
2023-03-12T08:02:28.541Z,3.30
2023-03-12T08:04:55.319Z,3.30
2023-03-12T08:07:22.004Z,3.20
2023-03-12T08:09:49.863Z,3.20
2023-03-12T08:12:16.791Z,3.20
2023-03-12T08:14:44.021Z,3.20
2023-03-12T08:17:11.604Z,3.20
2023-03-12T08:19:38.270Z,3.20
2023-03-12T08:22:06.222Z,3.20
2023-03-12T08:24:32.932Z,3.10
2023-03-12T08:26:59.597Z,3.00
2023-03-12T08:29:26.394Z,3.10
2023-03-12T08:32:04.205Z,3.10
2023-03-12T08:34:32.383Z,3.10
2023-03-12T08:36:59.110Z,3.10
2023-03-12T08:39:26.002Z,3.20
2023-03-12T08:41:55.349Z,3.20
2023-03-12T08:44:23.230Z,3.30
2023-03-12T08:46:50.228Z,3.30
2023-03-12T08:49:17.009Z,3.30
2023-03-12T08:51:43.690Z,3.40
2023-03-12T08:54:10.351Z,3.40
2023-03-12T08:56:43.139Z,3.40
2023-03-12T08:59:11.448Z,3.20
2023-03-12T09:01:38.421Z,3.20
2023-03-12T09:04:05.711Z,3.20
2023-03-12T09:06:35.262Z,3.20
2023-03-12T09:09:05.068Z,3.20
2023-03-12T09:11:33.788Z,3.20
2023-03-12T09:14:42.676Z,3.30
2023-03-12T09:16:48.485Z,3.40
2023-03-12T09:19:15.728Z,3.50
2023-03-12T09:21:42.587Z,3.50
2023-03-12T09:24:11.138Z,3.50
2023-03-12T09:26:37.825Z,3.60
2023-03-12T09:29:04.630Z,3.60
2023-03-12T09:31:31.432Z,3.60
2023-03-12T09:33:58.141Z,3.50
2023-03-12T09:36:24.782Z,3.50
2023-03-12T09:38:51.426Z,3.50
2023-03-12T09:41:27.989Z,3.50
2023-03-12T09:44:17.197Z,3.60
2023-03-12T09:47:07.365Z,3.60
2023-03-12T09:49:49.888Z,3.70
2023-03-12T09:52:42.931Z,3.70
2023-03-12T09:55:16.478Z,3.70
2023-03-12T09:57:48.336Z,3.70
2023-03-12T10:00:18.027Z,3.70
2023-03-12T10:02:44.617Z,3.80
2023-03-12T10:05:24.244Z,3.80
2023-03-12T10:07:56.855Z,3.80
2023-03-12T10:10:33.415Z,3.90
2023-03-12T10:13:17.029Z,4.10
2023-03-12T10:16:10.780Z,4.20
2023-03-12T10:18:58.927Z,4.10
2023-03-12T10:21:43.881Z,4.10
2023-03-12T10:24:15.169Z,4.20
2023-03-12T10:26:45.708Z,4.20
2023-03-12T10:29:25.906Z,4.30
2023-03-12T10:32:04.493Z,4.30
2023-03-12T10:34:40.220Z,4.40
2023-03-12T10:37:26.483Z,4.50
2023-03-12T10:39:55.686Z,4.60
2023-03-12T10:42:25.311Z,4.60
2023-03-12T10:44:58.945Z,4.60
2023-03-12T10:47:37.521Z,4.50
2023-03-12T10:50:28.690Z,4.60
2023-03-12T10:53:20.549Z,4.80
2023-03-12T10:56:06.417Z,4.90
2023-03-12T10:58:45.701Z,5.00
2023-03-12T11:01:15.528Z,5.10
2023-03-12T11:03:43.225Z,5.10
2023-03-12T11:06:19.525Z,5.10
2023-03-12T11:09:22.407Z,5.00
2023-03-12T11:11:50.371Z,5.10
2023-03-12T11:14:20.521Z,5.20
2023-03-12T11:16:47.373Z,5.30
2023-03-12T11:19:26.979Z,5.40
2023-03-12T11:22:00.329Z,5.50
2023-03-12T11:24:27.179Z,5.60
2023-03-12T11:27:08.035Z,5.60
2023-03-12T11:29:40.283Z,5.70
2023-03-12T11:32:17.963Z,5.80
2023-03-12T11:34:49.503Z,6.40
2023-03-12T11:37:25.493Z,7.30
2023-03-12T11:40:06.284Z,7.70
2023-03-12T11:42:44.256Z,8.10
2023-03-12T11:45:45.711Z,8.00
2023-03-12T11:48:35.144Z,7.60
2023-03-12T11:51:19.687Z,7.50
2023-03-12T11:54:17.148Z,7.50
2023-03-12T11:56:53.662Z,7.70
2023-03-12T11:59:24.802Z,7.80
2023-03-12T12:02:13.638Z,6.90
2023-03-12T12:04:59.228Z,8.00
2023-03-12T12:07:44.078Z,8.30
2023-03-12T12:10:46.664Z,8.60
2023-03-12T12:13:13.297Z,9.10
2023-03-12T12:16:23.745Z,9.60
2023-03-12T12:19:14.384Z,10.30
2023-03-12T12:21:55.279Z,10.70
2023-03-12T12:24:56.982Z,11.20
2023-03-12T12:27:29.232Z,11.80
2023-03-12T12:30:11.228Z,12.00
2023-03-12T12:33:07.309Z,12.20
2023-03-12T12:35:37.435Z,11.60
2023-03-12T12:38:29.823Z,11.10
2023-03-12T12:41:07.847Z,10.90
2023-03-12T12:43:40.117Z,10.70
2023-03-12T12:46:13.677Z,10.60
2023-03-12T12:48:45.421Z,10.50
2023-03-12T12:51:14.294Z,10.30
2023-03-12T12:53:44.257Z,10.20
2023-03-12T12:56:19.784Z,10.10
2023-03-12T12:59:05.253Z,10.10
2023-03-12T13:01:34.796Z,10.20
2023-03-12T13:04:17.572Z,10.40
2023-03-12T13:06:54.660Z,10.60
2023-03-12T13:09:23.525Z,10.80
2023-03-12T13:11:51.576Z,10.80
2023-03-12T13:14:34.505Z,10.90
2023-03-12T13:17:29.062Z,10.90
2023-03-12T13:20:08.658Z,11.00
2023-03-12T13:22:46.088Z,11.00
2023-03-12T13:25:31.693Z,11.10
2023-03-12T13:28:26.574Z,11.10
2023-03-12T13:30:54.226Z,11.40
2023-03-12T13:33:39.743Z,11.70
2023-03-12T13:36:15.684Z,12.20
2023-03-12T13:39:29.145Z,11.80
2023-03-12T13:41:57.268Z,11.70
2023-03-12T13:44:23.869Z,11.70
2023-03-12T13:47:02.461Z,11.80
2023-03-12T13:49:40.502Z,11.80
2023-03-12T13:52:25.608Z,12.00
2023-03-12T13:55:15.721Z,12.10
2023-03-12T13:57:52.905Z,12.30
2023-03-12T14:00:33.133Z,12.20
2023-03-12T14:03:09.862Z,12.30
2023-03-12T14:05:52.111Z,12.50
2023-03-12T14:08:43.041Z,12.60
2023-03-12T14:11:17.698Z,12.60
2023-03-12T14:14:13.521Z,12.70
2023-03-12T14:16:50.126Z,12.70
2023-03-12T14:19:19.720Z,12.70
2023-03-12T14:21:48.776Z,12.60
2023-03-12T14:24:29.077Z,12.60
2023-03-12T14:26:57.757Z,12.60
2023-03-12T14:29:35.894Z,12.70
2023-03-12T14:32:06.154Z,12.70
2023-03-12T14:34:41.669Z,12.60
2023-03-12T14:37:16.322Z,12.60
2023-03-12T14:39:59.231Z,12.60
2023-03-12T14:42:32.570Z,12.60
2023-03-12T14:45:03.868Z,12.70
2023-03-12T14:47:30.508Z,12.70
2023-03-12T14:49:57.829Z,12.60
2023-03-12T14:52:30.521Z,12.70
2023-03-12T14:55:04.508Z,12.70
2023-03-12T14:57:31.437Z,12.80
2023-03-12T15:00:00.607Z,12.90
2023-03-12T15:02:31.522Z,12.90
2023-03-12T15:05:01.487Z,13.00
2023-03-12T15:07:39.739Z,13.10
2023-03-12T15:10:16.939Z,13.20
2023-03-12T15:12:45.928Z,13.20
2023-03-12T15:15:28.029Z,13.20
2023-03-12T15:17:55.046Z,13.20
2023-03-12T15:20:24.281Z,13.10
2023-03-12T15:22:52.732Z,13.00
2023-03-12T15:25:23.918Z,13.00
2023-03-12T15:28:22.570Z,13.10
2023-03-12T15:31:15.463Z,13.10
2023-03-12T15:33:44.167Z,13.10
2023-03-12T15:36:19.649Z,13.00
2023-03-12T15:38:52.184Z,13.00
2023-03-12T15:41:22.576Z,12.80
2023-03-12T15:43:54.545Z,13.00
2023-03-12T15:46:22.280Z,13.00
2023-03-12T15:48:52.876Z,13.00
2023-03-12T15:51:35.337Z,13.00
2023-03-12T15:54:17.042Z,13.00
2023-03-12T15:56:43.967Z,13.50
2023-03-12T15:59:16.594Z,12.90
2023-03-12T16:01:54.382Z,12.80
2023-03-12T16:04:22.129Z,12.80
2023-03-12T16:06:50.558Z,12.80
2023-03-12T16:09:26.211Z,12.80
2023-03-12T16:11:55.044Z,12.80
2023-03-12T16:14:29.124Z,12.90
2023-03-12T16:16:55.996Z,12.80
2023-03-12T16:19:23.895Z,12.80
2023-03-12T16:21:50.914Z,12.70
2023-03-12T16:24:17.887Z,12.70
2023-03-12T16:26:51.935Z,12.60
2023-03-12T16:29:21.228Z,12.50
2023-03-12T16:31:54.156Z,12.40
2023-03-12T16:34:21.412Z,12.30
2023-03-12T16:36:48.120Z,12.20
2023-03-12T16:39:15.256Z,12.10
2023-03-12T16:41:43.265Z,12.10
2023-03-12T16:44:17.814Z,12.10
2023-03-12T16:46:45.218Z,12.10
2023-03-12T16:49:17.226Z,12.10
2023-03-12T16:51:44.181Z,12.10
2023-03-12T16:54:12.239Z,12.10
2023-03-12T16:56:43.329Z,12.10
2023-03-12T16:59:24.796Z,12.10
2023-03-12T17:01:51.704Z,12.10
2023-03-12T17:04:18.315Z,12.00
2023-03-12T17:06:44.995Z,12.00
2023-03-12T17:09:11.617Z,12.00
2023-03-12T17:11:38.909Z,12.00
2023-03-12T17:14:16.488Z,12.00
2023-03-12T17:16:43.168Z,12.10
2023-03-12T17:19:09.781Z,12.10
2023-03-12T17:21:37.413Z,12.00
2023-03-12T17:24:04.427Z,12.00
2023-03-12T17:26:31.165Z,12.00
2023-03-12T17:28:57.937Z,12.00
2023-03-12T17:31:24.712Z,12.00
2023-03-12T17:33:51.452Z,12.00
2023-03-12T17:36:18.122Z,12.00
2023-03-12T17:38:44.762Z,12.00
2023-03-12T17:41:25.400Z,12.00
2023-03-12T17:43:52.589Z,12.00
2023-03-12T17:46:19.320Z,12.00
2023-03-12T17:48:45.965Z,11.90
2023-03-12T17:51:12.609Z,11.80
2023-03-12T17:53:39.613Z,11.80
2023-03-12T17:56:07.028Z,11.70
2023-03-12T17:58:33.678Z,11.70
2023-03-12T18:01:00.588Z,11.70
2023-03-12T18:03:27.338Z,11.70
2023-03-12T18:05:54.035Z,11.70
2023-03-12T18:08:20.703Z,11.70
2023-03-12T18:10:48.265Z,11.70
2023-03-12T18:13:14.902Z,11.70
2023-03-12T18:15:41.726Z,11.70
2023-03-12T18:18:08.543Z,11.70
2023-03-12T18:20:39.362Z,11.70
2023-03-12T18:23:06.597Z,11.70
2023-03-12T18:25:33.412Z,11.70
2023-03-12T18:28:00.144Z,11.60
2023-03-12T18:30:28.171Z,11.60
2023-03-12T18:32:55.076Z,12.50
2023-03-12T18:35:22.764Z,11.60
2023-03-12T18:37:51.812Z,11.60
2023-03-12T18:40:18.506Z,11.50
2023-03-12T18:42:45.158Z,11.50
2023-03-12T18:45:12.355Z,11.50
2023-03-12T18:47:39.667Z,11.50
2023-03-12T18:50:07.154Z,11.60
2023-03-12T18:52:33.871Z,11.60
2023-03-12T18:55:00.598Z,11.60
2023-03-12T18:57:27.536Z,11.60
2023-03-12T18:59:54.265Z,11.60
2023-03-12T19:02:20.910Z,11.60
2023-03-12T19:04:47.588Z,11.60
2023-03-12T19:07:14.293Z,11.60
2023-03-12T19:09:40.914Z,11.50
2023-03-12T19:12:07.638Z,11.60
2023-03-12T19:14:34.282Z,11.50
2023-03-12T19:17:00.944Z,11.50
2023-03-12T19:19:27.584Z,11.50
2023-03-12T19:21:57.077Z,11.50
2023-03-12T19:24:24.010Z,11.50
2023-03-12T19:26:50.706Z,11.50
2023-03-12T19:29:17.393Z,11.50
2023-03-12T19:31:44.095Z,11.50
2023-03-12T19:34:10.727Z,11.60
2023-03-12T19:36:37.385Z,11.50
2023-03-12T19:39:11.925Z,11.50
2023-03-12T19:41:45.544Z,11.50
2023-03-12T19:44:12.332Z,11.40
2023-03-12T19:46:41.706Z,11.50
2023-03-12T19:49:08.391Z,11.50
2023-03-12T19:51:35.432Z,11.40
2023-03-12T19:54:02.114Z,11.50
2023-03-12T19:56:29.039Z,11.50
2023-03-12T19:58:55.678Z,11.50
2023-03-12T20:01:22.956Z,11.50
2023-03-12T20:03:49.687Z,11.50
2023-03-12T20:06:16.337Z,11.30
2023-03-12T20:08:44.482Z,11.30
2023-03-12T20:11:11.198Z,11.30
2023-03-12T20:13:40.826Z,11.20
2023-03-12T20:16:08.095Z,11.30
2023-03-12T20:18:34.958Z,11.30
2023-03-12T20:21:01.701Z,11.30
2023-03-12T20:23:28.442Z,11.20
2023-03-12T20:25:55.074Z,11.20
2023-03-12T20:28:21.752Z,11.20
2023-03-12T20:30:48.604Z,11.20
2023-03-12T20:33:15.485Z,11.10
2023-03-12T20:35:42.214Z,11.10
2023-03-12T20:38:09.003Z,11.10
2023-03-12T20:40:35.797Z,11.00
2023-03-12T20:43:04.711Z,10.90
2023-03-12T20:45:33.037Z,10.90
2023-03-12T20:48:00.449Z,10.80
2023-03-12T20:50:28.290Z,10.80
2023-03-12T20:52:55.021Z,10.70
2023-03-12T20:55:21.820Z,10.70
2023-03-12T20:57:48.516Z,10.60
2023-03-12T21:00:15.455Z,10.60
2023-03-12T21:02:42.168Z,10.60
2023-03-12T21:05:11.295Z,10.60
2023-03-12T21:07:38.045Z,10.50
2023-03-12T21:10:05.113Z,10.50
2023-03-12T21:12:31.828Z,10.50
2023-03-12T21:15:06.290Z,10.50
2023-03-12T21:17:34.676Z,10.50
2023-03-12T21:20:01.983Z,10.50
2023-03-12T21:22:32.237Z,10.50
2023-03-12T21:24:58.953Z,10.50
2023-03-12T21:27:25.788Z,10.40
2023-03-12T21:29:53.535Z,10.40
2023-03-12T21:32:21.535Z,10.40
2023-03-12T21:34:48.861Z,10.40
2023-03-12T21:37:16.461Z,10.40
2023-03-12T21:39:43.268Z,10.40
2023-03-12T21:42:09.953Z,10.40
2023-03-12T21:44:37.413Z,10.30
2023-03-12T21:47:05.053Z,10.30
2023-03-12T21:49:34.074Z,10.30
2023-03-12T21:52:02.057Z,10.30
2023-03-12T21:54:33.120Z,10.30
2023-03-12T21:57:02.767Z,10.30
2023-03-12T21:59:30.272Z,10.30
2023-03-12T22:01:57.538Z,10.30
2023-03-12T22:04:25.085Z,10.30
2023-03-12T22:06:52.120Z,10.30
2023-03-12T22:09:18.941Z,10.30
2023-03-12T22:11:45.554Z,10.20
2023-03-12T22:14:12.265Z,10.20
2023-03-12T22:16:39.012Z,10.30
2023-03-12T22:19:07.354Z,10.20
2023-03-12T22:21:33.990Z,10.20
2023-03-12T22:24:01.492Z,10.20
2023-03-12T22:26:28.627Z,10.20
2023-03-12T22:28:57.541Z,10.30
2023-03-12T22:31:26.920Z,10.20
2023-03-12T22:33:53.690Z,10.20
2023-03-12T22:36:21.544Z,10.30
2023-03-12T22:38:48.247Z,10.30
2023-03-12T22:41:17.874Z,10.30
2023-03-12T22:43:45.407Z,10.20
2023-03-12T22:46:13.123Z,10.20
2023-03-12T22:48:39.854Z,10.10
2023-03-12T22:51:06.797Z,10.10
2023-03-12T22:53:33.874Z,11.40
2023-03-12T22:56:02.715Z,10.00
2023-03-12T22:58:29.785Z,9.90
2023-03-12T23:01:05.394Z,10.00
2023-03-12T23:03:33.881Z,10.00
2023-03-12T23:06:00.866Z,10.00
2023-03-12T23:08:28.223Z,9.50
2023-03-12T23:10:57.942Z,10.00
2023-03-12T23:13:26.144Z,10.00
2023-03-12T23:15:52.838Z,10.00
2023-03-12T23:18:20.106Z,10.00
2023-03-12T23:20:47.209Z,9.90
2023-03-12T23:23:16.906Z,9.90
2023-03-12T23:25:51.502Z,9.90
2023-03-12T23:28:18.145Z,9.90
2023-03-12T23:30:56.544Z,9.80
2023-03-12T23:33:23.768Z,9.80
2023-03-12T23:35:58.499Z,9.70
2023-03-12T23:38:26.222Z,9.70
2023-03-12T23:40:52.945Z,9.70
2023-03-12T23:43:19.664Z,9.80
2023-03-12T23:45:46.406Z,9.90
2023-03-12T23:48:13.090Z,9.90
2023-03-12T23:50:41.155Z,10.00
2023-03-12T23:53:07.930Z,10.00
2023-03-12T23:55:34.679Z,9.90
2023-03-12T23:58:01.325Z,10.00
